createdAt,value
2018-12-05T00:00:16.756Z,13.17
2018-12-05T00:02:19.370Z,13.33
2018-12-05T00:04:21.909Z,15.57
2018-12-05T00:06:24.569Z,14.40
2018-12-05T00:08:27.274Z,14.87
2018-12-05T00:10:29.805Z,13.50
2018-12-05T00:12:32.451Z,11.93
2018-12-05T00:14:34.986Z,11.73
2018-12-05T00:16:37.552Z,11.13
2018-12-05T00:18:40.131Z,10.97
2018-12-05T00:20:42.750Z,10.43
2018-12-05T00:22:45.300Z,11.97
2018-12-05T00:24:47.833Z,12.10
2018-12-05T00:26:50.599Z,12.37
2018-12-05T00:28:53.125Z,13.80
2018-12-05T00:30:55.713Z,16.87
2018-12-05T00:32:58.318Z,18.13
2018-12-05T00:35:00.846Z,15.47
2018-12-05T00:37:03.408Z,14.70
2018-12-05T00:39:07.350Z,16.97
2018-12-05T00:41:09.963Z,16.37
2018-12-05T00:43:12.526Z,16.07
2018-12-05T00:45:15.065Z,15.93
2018-12-05T00:47:17.642Z,15.93
2018-12-05T00:49:20.294Z,15.73
2018-12-05T00:51:22.821Z,15.87
2018-12-05T00:53:25.346Z,15.33
2018-12-05T00:55:27.886Z,15.30
2018-12-05T00:57:30.425Z,15.47
2018-12-05T00:59:33.022Z,15.87
2018-12-05T01:01:35.666Z,15.57
2018-12-05T01:03:38.213Z,18.03
2018-12-05T01:05:40.752Z,18.27
2018-12-05T01:07:43.265Z,16.27
2018-12-05T01:09:45.815Z,17.27
2018-12-05T01:11:48.418Z,18.30
2018-12-05T01:13:51.090Z,18.67
2018-12-05T01:15:53.848Z,17.13
2018-12-05T01:17:56.372Z,16.83
2018-12-05T01:19:59.003Z,16.97
2018-12-05T01:22:01.523Z,17.83
2018-12-05T01:24:04.142Z,16.83
2018-12-05T01:26:06.717Z,17.97
2018-12-05T01:28:09.299Z,17.27
2018-12-05T01:30:11.967Z,18.10
2018-12-05T01:32:14.474Z,17.07
2018-12-05T01:34:17.015Z,16.93
2018-12-05T01:36:19.618Z,17.33
2018-12-05T01:38:22.219Z,18.13
2018-12-05T01:40:24.756Z,19.53
2018-12-05T01:42:27.313Z,17.97
2018-12-05T01:44:30.077Z,17.47
2018-12-05T01:46:32.597Z,17.70
2018-12-05T01:48:35.150Z,15.90
2018-12-05T01:50:37.681Z,16.67
2018-12-05T01:52:40.242Z,16.80
2018-12-05T01:54:42.968Z,18.03
2018-12-05T01:56:45.477Z,17.07
2018-12-05T01:58:48.077Z,15.47
2018-12-05T02:00:50.703Z,16.03
2018-12-05T02:02:53.218Z,17.57
2018-12-05T02:04:55.870Z,16.80
2018-12-05T02:06:58.494Z,15.80
2018-12-05T02:09:01.146Z,15.80
2018-12-05T02:11:03.697Z,15.80
2018-12-05T02:13:06.275Z,15.83
2018-12-05T02:15:08.993Z,16.27
2018-12-05T02:17:11.532Z,15.17
2018-12-05T02:19:14.111Z,17.87
2018-12-05T02:21:17.705Z,16.80
2018-12-05T02:23:20.302Z,15.97
2018-12-05T02:25:22.891Z,16.27
2018-12-05T02:27:25.550Z,14.67
2018-12-05T02:29:33.774Z,15.20
2018-12-05T02:31:36.317Z,16.03
2018-12-05T02:33:38.896Z,16.37
2018-12-05T02:35:41.529Z,15.87
2018-12-05T02:37:44.057Z,15.87
2018-12-05T02:39:46.698Z,14.10
2018-12-05T02:41:49.310Z,15.03
2018-12-05T02:43:51.888Z,14.30
2018-12-05T02:45:54.417Z,15.20
2018-12-05T02:47:56.934Z,14.33
2018-12-05T02:49:59.587Z,15.67
2018-12-05T02:52:02.124Z,15.63
2018-12-05T02:54:04.950Z,16.20
2018-12-05T02:56:07.477Z,15.43
2018-12-05T02:58:10.091Z,14.90
2018-12-05T03:00:12.755Z,15.27
2018-12-05T03:02:15.273Z,14.37
2018-12-05T03:04:17.893Z,14.27
2018-12-05T03:06:20.415Z,13.97
2018-12-05T03:08:23.172Z,12.93
2018-12-05T03:10:25.810Z,14.70
2018-12-05T03:12:28.325Z,14.13
2018-12-05T03:14:30.872Z,13.87
2018-12-05T03:16:33.513Z,13.67
2018-12-05T03:18:36.030Z,13.77
2018-12-05T03:20:38.609Z,14.03
2018-12-05T03:22:41.245Z,13.37
2018-12-05T03:24:43.853Z,12.97
2018-12-05T03:26:46.430Z,12.93
2018-12-05T03:28:49.037Z,13.93
2018-12-05T03:30:51.691Z,13.80
2018-12-05T03:32:54.213Z,12.93
2018-12-05T03:34:56.829Z,13.17
2018-12-05T03:36:59.372Z,12.93
2018-12-05T03:39:01.929Z,13.70
2018-12-05T03:41:04.474Z,15.53
2018-12-05T03:43:07.017Z,15.00
2018-12-05T03:45:09.785Z,16.30
2018-12-05T03:47:12.313Z,15.33
2018-12-05T03:49:14.853Z,16.57
2018-12-05T03:51:17.379Z,14.97
2018-12-05T03:53:19.945Z,15.73
2018-12-05T03:55:22.606Z,14.83
2018-12-05T03:57:25.148Z,15.70
2018-12-05T03:59:27.674Z,14.83
2018-12-05T04:01:30.295Z,14.93
2018-12-05T04:03:32.937Z,14.73
2018-12-05T04:05:35.555Z,15.73
2018-12-05T04:07:38.173Z,15.40
2018-12-05T04:09:40.802Z,15.97
2018-12-05T04:11:43.345Z,15.93
2018-12-05T04:13:45.892Z,15.70
2018-12-05T04:15:48.434Z,16.37
2018-12-05T04:17:51.113Z,16.57
2018-12-05T04:19:53.674Z,16.70
2018-12-05T04:21:56.315Z,15.13
2018-12-05T04:23:59.825Z,16.27
2018-12-05T04:26:02.375Z,15.07
2018-12-05T04:28:04.888Z,16.37
2018-12-05T04:30:07.623Z,15.13
2018-12-05T04:32:10.218Z,16.00
2018-12-05T04:34:12.770Z,15.63
2018-12-05T04:36:15.379Z,15.13
2018-12-05T04:38:17.922Z,15.13
2018-12-05T04:40:20.600Z,15.57
2018-12-05T04:42:23.177Z,15.87
2018-12-05T04:44:25.709Z,15.13
2018-12-05T04:46:28.274Z,15.90
2018-12-05T04:48:30.851Z,14.47
2018-12-05T04:50:34.446Z,14.83
2018-12-05T04:52:37.259Z,15.40
2018-12-05T04:54:39.909Z,14.57
2018-12-05T04:56:42.602Z,17.20
2018-12-05T04:58:45.129Z,23.70
2018-12-05T05:00:47.817Z,16.27
2018-12-05T05:02:50.348Z,15.77
2018-12-05T05:04:52.893Z,16.23
2018-12-05T05:06:55.439Z,15.53
2018-12-05T05:08:57.979Z,15.17
2018-12-05T05:11:00.501Z,14.43
2018-12-05T05:13:03.070Z,15.93
2018-12-05T05:15:05.793Z,14.87
2018-12-05T05:17:08.336Z,14.83
2018-12-05T05:19:11.067Z,15.77
2018-12-05T05:21:13.622Z,15.90
2018-12-05T05:23:16.148Z,15.47
2018-12-05T05:25:18.741Z,14.70
2018-12-05T05:27:21.310Z,14.90
2018-12-05T05:29:23.846Z,14.67
2018-12-05T05:31:26.385Z,15.47
2018-12-05T05:33:29.130Z,14.87
2018-12-05T05:35:31.831Z,15.67
2018-12-05T05:37:34.361Z,14.80
2018-12-05T05:39:36.919Z,15.63
2018-12-05T05:41:39.447Z,15.93
2018-12-05T05:43:42.016Z,15.77
2018-12-05T05:45:44.650Z,14.97
2018-12-05T05:47:47.347Z,15.63
2018-12-05T05:49:49.994Z,15.00
2018-12-05T05:51:52.509Z,14.60
2018-12-05T05:53:55.045Z,15.87
2018-12-05T05:55:57.576Z,14.77
2018-12-05T05:58:00.203Z,15.83
2018-12-05T06:00:02.926Z,15.03
2018-12-05T06:02:05.457Z,15.63
2018-12-05T06:04:08.070Z,15.00
2018-12-05T06:06:10.601Z,15.77
2018-12-05T06:08:13.140Z,18.43
2018-12-05T06:10:15.791Z,16.17
2018-12-05T06:12:18.598Z,15.00
2018-12-05T06:14:21.120Z,15.57
2018-12-05T06:16:23.668Z,15.27
2018-12-05T06:18:26.182Z,15.30
2018-12-05T06:20:28.703Z,15.30
2018-12-05T06:22:31.407Z,14.93
2018-12-05T06:24:33.971Z,14.50
2018-12-05T06:26:36.537Z,15.80
2018-12-05T06:28:39.132Z,14.00
2018-12-05T06:30:41.655Z,14.40
2018-12-05T06:32:44.270Z,15.50
2018-12-05T06:34:46.799Z,14.87
2018-12-05T06:36:49.430Z,16.10
2018-12-05T06:38:52.062Z,15.07
2018-12-05T06:40:54.611Z,13.70
2018-12-05T06:42:57.370Z,13.57
2018-12-05T06:44:59.919Z,14.13
2018-12-05T06:47:02.436Z,13.50
2018-12-05T06:49:04.979Z,14.43
2018-12-05T06:51:07.561Z,13.77
2018-12-05T06:53:10.193Z,13.20
2018-12-05T06:55:12.750Z,13.80
2018-12-05T06:57:15.267Z,14.53
2018-12-05T06:59:17.813Z,13.43
2018-12-05T07:01:20.362Z,13.07
2018-12-05T07:05:32.013Z,13.10
2018-12-05T07:07:34.558Z,13.90
2018-12-05T07:09:37.110Z,13.30
2018-12-05T07:11:39.658Z,12.73
2018-12-05T07:13:42.267Z,13.87
2018-12-05T07:15:44.993Z,12.80
2018-12-05T07:17:47.522Z,12.00
2018-12-05T07:19:50.039Z,12.23
2018-12-05T07:21:52.597Z,12.17
2018-12-05T07:23:55.137Z,11.50
2018-12-05T07:25:57.811Z,12.23
2018-12-05T07:28:00.349Z,12.83
2018-12-05T07:30:03.246Z,13.60
2018-12-05T07:32:05.867Z,13.67
2018-12-05T07:34:08.500Z,11.60
2018-12-05T07:36:11.010Z,11.53
2018-12-05T07:38:19.361Z,12.43
2018-12-05T07:40:18.139Z,13.53
2018-12-05T07:42:20.708Z,13.07
2018-12-05T07:44:23.263Z,12.03
2018-12-05T07:46:25.947Z,11.40
2018-12-05T07:48:28.517Z,11.57
2018-12-05T07:50:31.047Z,12.00
2018-12-05T07:52:33.666Z,11.40
2018-12-05T07:54:36.215Z,11.40
2018-12-05T07:56:38.758Z,11.53
2018-12-05T07:58:41.297Z,11.63
2018-12-05T08:00:43.922Z,11.30
2018-12-05T08:02:46.453Z,10.37
2018-12-05T08:04:48.994Z,11.33
2018-12-05T08:06:51.534Z,10.77
2018-12-05T08:08:54.093Z,10.57
2018-12-05T08:10:56.715Z,10.27
2018-12-05T08:12:59.229Z,9.80
2018-12-05T08:15:01.831Z,9.33
2018-12-05T08:17:04.438Z,8.73
2018-12-05T08:19:07.116Z,9.30
2018-12-05T08:21:09.690Z,9.87
2018-12-05T08:23:12.269Z,10.53
2018-12-05T08:25:14.805Z,9.80
2018-12-05T08:27:17.322Z,8.80
2018-12-05T08:29:19.861Z,9.07
2018-12-05T08:31:22.561Z,9.50
2018-12-05T08:33:25.259Z,10.17
2018-12-05T08:35:27.846Z,8.20
2018-12-05T08:37:30.456Z,9.80
2018-12-05T08:39:32.982Z,10.10
2018-12-05T08:41:35.538Z,10.20
2018-12-05T08:43:38.062Z,10.27
2018-12-05T08:45:40.763Z,10.63
2018-12-05T08:47:43.291Z,8.87
2018-12-05T08:49:45.893Z,9.67
2018-12-05T08:51:48.434Z,9.90
2018-12-05T08:53:50.961Z,9.90
2018-12-05T08:55:53.487Z,8.53
2018-12-05T08:57:56.034Z,10.67
2018-12-05T08:59:58.557Z,9.30
2018-12-05T09:02:01.151Z,9.93
2018-12-05T09:04:03.868Z,9.43
2018-12-05T09:06:06.385Z,10.77
2018-12-05T09:08:09.010Z,9.97
2018-12-05T09:10:11.575Z,10.20
2018-12-05T09:12:14.098Z,10.10
2018-12-05T09:14:16.706Z,10.53
2018-12-05T09:16:19.354Z,9.90
2018-12-05T09:18:21.994Z,9.60
2018-12-05T09:20:24.513Z,10.20
2018-12-05T09:22:27.029Z,9.97
2018-12-05T09:24:29.582Z,11.27
2018-12-05T09:26:32.192Z,10.40
2018-12-05T09:28:34.742Z,9.97
2018-12-05T09:30:38.215Z,10.00
2018-12-05T09:32:40.756Z,10.40
2018-12-05T09:34:43.360Z,10.77
2018-12-05T09:36:45.962Z,10.93
2018-12-05T09:38:48.714Z,11.43
2018-12-05T09:40:51.224Z,10.90
2018-12-05T09:42:53.984Z,10.90
2018-12-05T09:44:56.576Z,10.23
2018-12-05T09:46:59.211Z,10.83
2018-12-05T09:49:01.741Z,11.57
2018-12-05T09:51:04.454Z,11.30
2018-12-05T09:53:07.050Z,10.87
2018-12-05T09:55:09.837Z,10.47
2018-12-05T09:57:12.429Z,11.20
2018-12-05T09:59:14.954Z,11.63
2018-12-05T10:01:17.500Z,11.63
2018-12-05T10:03:20.051Z,11.50
2018-12-05T10:05:22.648Z,12.40
2018-12-05T10:07:25.217Z,11.67
2018-12-05T10:09:27.742Z,11.40
2018-12-05T10:11:30.270Z,11.93
2018-12-05T10:13:32.809Z,12.27
2018-12-05T10:15:35.334Z,11.33
2018-12-05T10:17:37.908Z,12.50
2018-12-05T10:19:40.490Z,11.50
2018-12-05T10:21:43.134Z,26.53
2018-12-05T10:23:45.707Z,13.50
2018-12-05T10:25:48.358Z,12.97
2018-12-05T10:27:50.882Z,12.50
2018-12-05T10:29:53.418Z,14.03
2018-12-05T10:31:55.974Z,11.83
2018-12-05T10:33:58.500Z,12.77
2018-12-05T10:36:01.340Z,13.13
2018-12-05T10:38:04.113Z,12.80
2018-12-05T10:40:06.850Z,12.70
2018-12-05T10:42:09.392Z,14.07
2018-12-05T10:44:11.951Z,14.20
2018-12-05T10:46:14.523Z,14.00
2018-12-05T10:48:17.202Z,13.77
2018-12-05T10:50:19.747Z,14.63
2018-12-05T10:52:22.391Z,15.13
2018-12-05T10:54:24.950Z,14.40
2018-12-05T10:56:27.597Z,14.87
2018-12-05T10:58:30.129Z,15.23
2018-12-05T11:00:38.246Z,14.57
2018-12-05T11:02:46.580Z,14.23
2018-12-05T11:05:01.900Z,14.87
2018-12-05T11:07:09.535Z,14.67
2018-12-05T11:09:17.748Z,15.03
2018-12-05T11:11:26.034Z,14.77
2018-12-05T11:13:34.246Z,14.60
2018-12-05T11:15:42.285Z,14.87
2018-12-05T11:17:46.924Z,14.03
2018-12-05T11:19:56.458Z,15.67
2018-12-05T11:22:15.734Z,14.90
2018-12-05T11:24:20.417Z,14.07
2018-12-05T11:26:25.055Z,14.53
2018-12-05T11:28:27.699Z,15.60
2018-12-05T11:30:30.546Z,14.87
2018-12-05T11:32:33.195Z,14.23
2018-12-05T11:34:35.801Z,15.13
2018-12-05T11:36:38.319Z,16.33
2018-12-05T11:38:40.875Z,15.10
2018-12-05T11:40:43.509Z,15.00
2018-12-05T11:42:46.288Z,15.33
2018-12-05T11:44:48.906Z,14.87
2018-12-05T11:46:51.434Z,15.83
2018-12-05T11:48:54.017Z,15.40
2018-12-05T11:50:56.580Z,16.03
2018-12-05T11:52:59.111Z,15.90
2018-12-05T11:55:01.736Z,15.60
2018-12-05T11:57:04.382Z,16.17
2018-12-05T11:59:07.000Z,16.50
2018-12-05T12:01:09.713Z,15.80
2018-12-05T12:03:12.310Z,16.00
2018-12-05T12:05:14.924Z,14.77
2018-12-05T12:07:17.462Z,16.17
2018-12-05T12:09:20.006Z,15.13
2018-12-05T12:11:23.144Z,16.80
2018-12-05T12:13:25.751Z,15.43
2018-12-05T12:15:28.397Z,15.73
2018-12-05T12:17:31.016Z,16.13
2018-12-05T12:19:33.669Z,19.73
2018-12-05T12:21:36.198Z,16.70
2018-12-05T12:23:38.753Z,20.93
2018-12-05T12:25:41.376Z,16.13
2018-12-05T12:27:43.954Z,15.90
2018-12-05T12:29:46.523Z,15.97
2018-12-05T12:31:49.099Z,15.83
2018-12-05T12:33:51.777Z,16.77
2018-12-05T12:35:54.297Z,16.27
2018-12-05T12:37:56.866Z,17.03
2018-12-05T12:39:59.418Z,16.07
2018-12-05T12:42:01.966Z,15.87
2018-12-05T12:44:04.698Z,17.17
2018-12-05T12:46:07.232Z,14.97
2018-12-05T12:48:09.780Z,16.20
2018-12-05T12:50:12.414Z,18.90
2018-12-05T12:52:14.949Z,16.77
2018-12-05T12:54:17.502Z,17.00
2018-12-05T12:56:20.047Z,15.70
2018-12-05T12:58:22.560Z,19.57
2018-12-05T13:00:25.154Z,15.53
2018-12-05T13:02:27.739Z,16.20
2018-12-05T13:04:30.366Z,14.67
2018-12-05T13:06:32.928Z,15.37
2018-12-05T13:08:35.450Z,15.97
2018-12-05T13:10:37.982Z,15.73
2018-12-05T13:12:40.545Z,15.57
2018-12-05T13:14:43.094Z,15.13
2018-12-05T13:16:45.686Z,14.30
2018-12-05T13:18:48.240Z,14.23
2018-12-05T13:20:50.767Z,14.87
2018-12-05T13:22:53.394Z,15.60
2018-12-05T13:24:56.017Z,15.03
2018-12-05T13:26:58.655Z,16.50
2018-12-05T13:29:01.410Z,16.80
2018-12-05T13:31:03.950Z,15.53
2018-12-05T13:33:06.508Z,15.40
2018-12-05T13:35:09.053Z,15.57
2018-12-05T13:37:11.590Z,14.80
2018-12-05T13:39:14.233Z,16.37
2018-12-05T13:41:16.777Z,15.87
2018-12-05T13:43:19.322Z,15.77
2018-12-05T13:45:21.951Z,17.80
2018-12-05T13:47:24.512Z,16.23
2018-12-05T13:49:28.724Z,15.50
2018-12-05T13:51:31.417Z,16.00
2018-12-05T13:53:33.993Z,15.70
2018-12-05T13:55:36.571Z,16.83
2018-12-05T13:57:39.104Z,15.23
2018-12-05T13:59:41.680Z,16.33
2018-12-05T14:01:44.348Z,17.03
2018-12-05T14:03:46.871Z,17.53
2018-12-05T14:05:49.488Z,18.90
2018-12-05T14:07:52.019Z,16.80
2018-12-05T14:09:54.599Z,16.07
2018-12-05T14:11:57.133Z,16.73
2018-12-05T14:13:59.791Z,21.00
2018-12-05T14:16:02.592Z,21.67
2018-12-05T14:18:05.179Z,23.47
2018-12-05T14:20:07.826Z,19.10
2018-12-05T14:22:10.338Z,19.33
2018-12-05T14:24:12.950Z,16.60
2018-12-05T14:26:15.482Z,16.07
2018-12-05T14:28:18.150Z,15.90
2018-12-05T14:30:20.717Z,18.53
2018-12-05T14:32:23.237Z,15.27
2018-12-05T14:34:25.758Z,17.53
2018-12-05T14:36:28.319Z,16.77
2018-12-05T14:38:30.935Z,15.53
2018-12-05T14:40:33.480Z,16.00
2018-12-05T14:42:36.038Z,17.57
2018-12-05T14:44:38.569Z,16.53
2018-12-05T14:46:41.219Z,17.00
2018-12-05T14:48:43.782Z,16.33
2018-12-05T14:50:46.379Z,18.03
2018-12-05T14:52:48.938Z,17.37
2018-12-05T14:54:51.467Z,17.73
2018-12-05T14:56:54.095Z,17.13
2018-12-05T14:58:56.778Z,16.17
2018-12-05T15:00:59.297Z,16.60
2018-12-05T15:03:01.853Z,17.37
2018-12-05T15:05:04.585Z,17.10
2018-12-05T15:07:07.107Z,18.30
2018-12-05T15:09:11.454Z,18.40
2018-12-05T15:11:14.244Z,17.77
2018-12-05T15:13:16.833Z,19.13
2018-12-05T15:15:19.383Z,21.90
2018-12-05T15:17:22.729Z,25.43
2018-12-05T15:19:25.462Z,23.40
2018-12-05T15:21:28.171Z,24.47
2018-12-05T15:23:30.717Z,18.97
2018-12-05T15:25:33.264Z,18.67
2018-12-05T15:27:35.792Z,18.23
2018-12-05T15:29:38.330Z,18.10
2018-12-05T15:31:40.898Z,18.00
2018-12-05T15:33:43.526Z,17.57
2018-12-05T15:35:46.077Z,16.90
2018-12-05T15:37:48.673Z,16.53
2018-12-05T15:39:51.199Z,16.93
2018-12-05T15:41:53.739Z,16.63
2018-12-05T15:43:56.307Z,17.03
2018-12-05T15:45:58.932Z,16.77
2018-12-05T15:48:01.458Z,15.53
2018-12-05T15:50:05.495Z,17.53
2018-12-05T15:52:08.016Z,15.97
2018-12-05T15:54:10.554Z,15.87
2018-12-05T15:56:13.076Z,15.20
2018-12-05T15:58:15.713Z,15.80
2018-12-05T16:00:18.214Z,16.20
2018-12-05T16:02:20.911Z,15.77
2018-12-05T16:04:23.465Z,14.73
2018-12-05T16:06:26.088Z,15.93
2018-12-05T16:08:28.610Z,16.93
2018-12-05T16:10:31.100Z,16.33
2018-12-05T16:12:33.634Z,16.90
2018-12-05T16:14:36.303Z,17.10
2018-12-05T16:16:38.894Z,17.27
2018-12-05T16:18:41.396Z,17.63
2018-12-05T16:20:43.917Z,25.40
2018-12-05T16:22:46.489Z,19.43
2018-12-05T16:24:49.022Z,18.93
2018-12-05T16:26:51.560Z,18.73
2018-12-05T16:28:54.167Z,18.97
2018-12-05T16:30:56.709Z,20.13
2018-12-05T16:32:59.238Z,22.37
2018-12-05T16:35:01.852Z,20.07
2018-12-05T16:37:04.502Z,19.77
2018-12-05T16:39:08.266Z,21.67
2018-12-05T16:41:10.940Z,19.70
2018-12-05T16:43:13.631Z,20.77
2018-12-05T16:45:16.354Z,19.03
2018-12-05T16:47:18.901Z,20.50
2018-12-05T16:49:21.437Z,19.40
2018-12-05T16:51:23.990Z,19.37
2018-12-05T16:53:26.548Z,24.67
2018-12-05T16:55:29.079Z,23.63
2018-12-05T16:57:31.618Z,24.00
2018-12-05T16:59:34.291Z,24.10
2018-12-05T17:01:36.818Z,33.67
2018-12-05T17:03:39.394Z,28.60
2018-12-05T17:05:41.950Z,25.43
2018-12-05T17:07:44.479Z,22.60
2018-12-05T17:09:47.028Z,23.20
2018-12-05T17:11:49.673Z,27.50
2018-12-05T17:13:52.374Z,28.80
2018-12-05T17:15:55.020Z,32.20
2018-12-05T17:17:57.650Z,27.10
2018-12-05T17:20:00.187Z,25.40
2018-12-05T17:22:02.737Z,20.40
2018-12-05T17:24:05.397Z,19.80
2018-12-05T17:26:08.058Z,20.73
2018-12-05T17:28:10.667Z,20.27
2018-12-05T17:30:13.198Z,20.00
2018-12-05T17:32:15.736Z,20.67
2018-12-05T17:34:18.307Z,22.57
2018-12-05T17:36:20.830Z,19.53
2018-12-05T17:38:23.582Z,28.27
2018-12-05T17:40:26.154Z,22.07
2018-12-05T17:42:28.689Z,21.53
2018-12-05T17:44:31.213Z,21.33
2018-12-05T17:46:33.817Z,21.33
2018-12-05T17:48:36.398Z,24.07
2018-12-05T17:50:39.009Z,21.93
2018-12-05T17:52:41.622Z,21.90
2018-12-05T17:54:44.177Z,22.67
2018-12-05T17:56:46.747Z,21.60
2018-12-05T17:58:49.297Z,21.63
2018-12-05T18:00:51.904Z,21.47
2018-12-05T18:02:54.529Z,20.67
2018-12-05T18:04:57.151Z,21.47
2018-12-05T18:06:59.891Z,25.33
2018-12-05T18:09:02.477Z,122.47
2018-12-05T18:11:05.024Z,24.53
2018-12-05T18:13:07.570Z,37.77
2018-12-05T18:15:10.332Z,28.60
2018-12-05T18:17:12.846Z,22.93
2018-12-05T18:19:15.371Z,26.60
2018-12-05T18:21:17.926Z,29.17
2018-12-05T18:23:20.490Z,23.90
2018-12-05T18:25:23.062Z,22.37
2018-12-05T18:27:25.592Z,20.70
2018-12-05T18:29:28.109Z,20.70
2018-12-05T18:31:30.663Z,21.20
2018-12-05T18:33:33.187Z,22.77
2018-12-05T18:35:35.809Z,28.13
2018-12-05T18:37:38.438Z,27.67
2018-12-05T18:39:40.964Z,30.07
2018-12-05T18:41:43.621Z,25.90
2018-12-05T18:43:46.145Z,24.70
2018-12-05T18:45:48.667Z,23.80
2018-12-05T18:47:51.267Z,22.60
2018-12-05T18:49:53.772Z,23.40
2018-12-05T18:51:56.352Z,25.07
2018-12-05T18:53:58.971Z,24.10
2018-12-05T18:56:01.510Z,23.10
2018-12-05T18:58:04.153Z,23.93
2018-12-05T19:00:07.969Z,23.30
2018-12-05T19:02:10.512Z,21.87
2018-12-05T19:04:13.058Z,24.27
2018-12-05T19:06:15.667Z,23.60
2018-12-05T19:08:18.237Z,22.90
2018-12-05T19:10:20.776Z,23.03
2018-12-05T19:12:23.310Z,24.30
2018-12-05T19:14:31.554Z,22.97
2018-12-05T19:16:34.102Z,21.67
2018-12-05T19:18:36.670Z,23.23
2018-12-05T19:20:39.219Z,22.53
2018-12-05T19:22:41.781Z,21.77
2018-12-05T19:24:44.292Z,21.87
2018-12-05T19:26:46.832Z,22.20
2018-12-05T19:28:49.419Z,21.77
2018-12-05T19:30:51.958Z,21.13
2018-12-05T19:32:54.511Z,22.27
2018-12-05T19:34:57.072Z,21.03
2018-12-05T19:36:59.614Z,21.60
2018-12-05T19:39:02.672Z,21.70
2018-12-05T19:41:05.911Z,20.90
2018-12-05T19:43:08.792Z,20.83
2018-12-05T19:45:11.526Z,21.87
2018-12-05T19:47:14.073Z,19.80
2018-12-05T19:49:16.618Z,21.00
2018-12-05T19:51:19.226Z,20.70
2018-12-05T19:53:21.758Z,21.10
2018-12-05T19:57:33.193Z,21.17
2018-12-05T19:59:35.922Z,21.00
2018-12-05T20:01:38.505Z,22.00
2018-12-05T20:03:41.182Z,20.63
2018-12-05T20:05:43.778Z,21.00
2018-12-05T20:07:46.319Z,23.83
2018-12-05T20:09:48.881Z,22.00
2018-12-05T20:11:51.428Z,21.37
2018-12-05T20:13:54.058Z,21.90
2018-12-05T20:15:56.597Z,22.13
2018-12-05T20:17:59.172Z,22.80
2018-12-05T20:20:01.716Z,20.73
2018-12-05T20:22:04.242Z,24.50
2018-12-05T20:24:06.906Z,22.07
2018-12-05T20:26:09.554Z,21.93
2018-12-05T20:28:12.198Z,22.77
2018-12-05T20:30:14.757Z,22.13
2018-12-05T20:32:17.354Z,25.80
2018-12-05T20:34:19.906Z,26.83
2018-12-05T20:36:22.477Z,23.60
2018-12-05T20:38:25.092Z,24.67
2018-12-05T20:40:27.621Z,36.00
2018-12-05T20:42:30.305Z,22.27
2018-12-05T20:44:32.829Z,29.83
2018-12-05T20:46:35.375Z,28.23
2018-12-05T20:48:37.922Z,24.77
2018-12-05T20:50:40.454Z,31.20
2018-12-05T20:52:43.078Z,24.67
2018-12-05T20:54:45.604Z,27.83
2018-12-05T20:56:48.142Z,26.17
2018-12-05T20:58:50.729Z,25.30
2018-12-05T21:00:53.277Z,26.97
2018-12-05T21:02:55.869Z,28.17
2018-12-05T21:04:58.431Z,27.57
2018-12-05T21:07:00.919Z,23.37
2018-12-05T21:09:06.480Z,25.40
2018-12-05T21:11:09.119Z,23.07
2018-12-05T21:13:11.780Z,84.20
2018-12-05T21:15:14.415Z,78.23
2018-12-05T21:17:17.115Z,38.83
2018-12-05T21:19:19.647Z,31.93
2018-12-05T21:21:22.239Z,34.77
2018-12-05T21:23:24.817Z,29.00
2018-12-05T21:25:27.383Z,23.30
2018-12-05T21:27:29.994Z,21.60
2018-12-05T21:29:32.587Z,21.07
2018-12-05T21:31:35.353Z,22.53
2018-12-05T21:33:37.878Z,23.23
2018-12-05T21:35:40.534Z,20.73
2018-12-05T21:37:43.065Z,23.40
2018-12-05T21:39:45.619Z,22.30
2018-12-05T21:41:48.950Z,24.10
2018-12-05T21:43:51.483Z,24.10
2018-12-05T21:45:54.071Z,28.17
2018-12-05T21:47:56.727Z,23.27
2018-12-05T21:49:59.369Z,24.70
2018-12-05T21:52:01.999Z,24.80
2018-12-05T21:54:04.688Z,26.67
2018-12-05T21:56:07.317Z,22.00
2018-12-05T21:58:09.943Z,23.13
2018-12-05T22:00:12.596Z,22.07
2018-12-05T22:02:15.141Z,21.90
2018-12-05T22:04:17.729Z,23.00
2018-12-05T22:06:20.313Z,23.17
2018-12-05T22:08:22.851Z,22.37
2018-12-05T22:10:25.481Z,24.53
2018-12-05T22:12:28.095Z,23.17
2018-12-05T22:14:30.746Z,23.43
2018-12-05T22:16:33.283Z,22.27
2018-12-05T22:18:35.830Z,22.47
2018-12-05T22:20:38.374Z,24.83
2018-12-05T22:22:40.969Z,23.83
2018-12-05T22:24:43.733Z,28.53
2018-12-05T22:26:46.276Z,24.83
2018-12-05T22:28:48.939Z,24.30
2018-12-05T22:30:51.555Z,23.40
2018-12-05T22:32:54.089Z,24.17
2018-12-05T22:34:56.607Z,24.20
2018-12-05T22:36:59.183Z,23.70
2018-12-05T22:39:01.818Z,22.50
2018-12-05T22:41:04.362Z,23.93
2018-12-05T22:43:06.929Z,22.80
2018-12-05T22:45:09.525Z,23.67
2018-12-05T22:47:12.083Z,23.80
2018-12-05T22:49:14.677Z,24.27
2018-12-05T22:51:17.247Z,24.20
2018-12-05T22:53:19.978Z,22.50
2018-12-05T22:55:22.501Z,23.43
2018-12-05T22:57:25.078Z,22.77
2018-12-05T22:59:27.613Z,22.73
2018-12-05T23:01:30.156Z,24.93
2018-12-05T23:03:32.838Z,24.77
2018-12-05T23:05:35.366Z,23.47
2018-12-05T23:07:38.024Z,22.53
2018-12-05T23:14:09.505Z,25.70
2018-12-05T23:16:12.105Z,22.20
2018-12-05T23:18:14.665Z,23.63
2018-12-05T23:20:17.309Z,27.17
2018-12-05T23:22:19.885Z,23.70
2018-12-05T23:24:22.587Z,24.93
2018-12-05T23:26:25.158Z,23.73
2018-12-05T23:28:27.733Z,24.17
2018-12-05T23:30:30.434Z,24.03
2018-12-05T23:32:32.953Z,24.13
2018-12-05T23:34:35.501Z,23.23
2018-12-05T23:36:38.118Z,24.60
2018-12-05T23:38:40.679Z,23.07
2018-12-05T23:40:43.319Z,24.73
2018-12-05T23:42:47.424Z,23.60
2018-12-05T23:44:49.942Z,33.30
2018-12-05T23:46:52.474Z,27.83
2018-12-05T23:48:55.022Z,26.10
2018-12-05T23:50:57.568Z,22.83
2018-12-05T23:53:00.085Z,22.57
2018-12-05T23:55:02.613Z,23.63
2018-12-05T23:57:05.215Z,26.20
2018-12-05T23:59:07.857Z,24.87
